createdAt,value
2018-11-04T00:00:03.436Z,96027.00
2018-11-04T00:00:41.185Z,96029.00
2018-11-04T00:01:18.814Z,96026.00
2018-11-04T00:01:56.426Z,96019.00
2018-11-04T00:02:34.169Z,96021.00
2018-11-04T00:03:12.217Z,96020.00
2018-11-04T00:03:49.910Z,96017.00
2018-11-04T00:04:27.805Z,96012.00
2018-11-04T00:05:05.264Z,96019.00
2018-11-04T00:05:43.034Z,96020.00
2018-11-04T00:06:20.891Z,96022.00
2018-11-04T00:06:58.737Z,96021.00
2018-11-04T00:07:36.359Z,96018.00
2018-11-04T00:08:14.068Z,96022.00
2018-11-04T00:08:51.696Z,96017.00
2018-11-04T00:09:29.480Z,96018.00
2018-11-04T00:10:07.203Z,96018.00
2018-11-04T00:10:44.817Z,96011.00
2018-11-04T00:11:22.262Z,96006.00
2018-11-04T00:11:59.962Z,96007.00
2018-11-04T00:12:37.516Z,96003.00
2018-11-04T00:13:15.058Z,96009.00
2018-11-04T00:13:52.735Z,96005.00
2018-11-04T00:14:30.194Z,96008.00
2018-11-04T00:15:08.195Z,96009.00
2018-11-04T00:15:45.869Z,96004.00
2018-11-04T00:16:23.776Z,96002.00
2018-11-04T00:17:01.680Z,96007.00
2018-11-04T00:17:39.552Z,96007.00
2018-11-04T00:18:17.173Z,96004.00
2018-11-04T00:18:55.037Z,95999.00
2018-11-04T00:19:32.604Z,96001.00
2018-11-04T00:20:10.194Z,96004.00
2018-11-04T00:20:47.777Z,96003.00
2018-11-04T00:21:25.380Z,96006.00
2018-11-04T00:22:03.131Z,95998.00
2018-11-04T00:22:40.932Z,96003.00
2018-11-04T00:23:18.774Z,96004.00
2018-11-04T00:23:56.419Z,96001.00
2018-11-04T00:24:34.179Z,95999.00
2018-11-04T00:25:11.946Z,96001.00
2018-11-04T00:25:49.596Z,95996.00
2018-11-04T00:26:27.122Z,95995.00
2018-11-04T00:27:04.682Z,95998.00
2018-11-04T00:27:42.542Z,95992.00
2018-11-04T00:28:20.243Z,95990.00
2018-11-04T00:28:57.942Z,95989.00
2018-11-04T00:29:35.599Z,95996.00
2018-11-04T00:30:13.362Z,95990.00
2018-11-04T00:30:51.063Z,95991.00
2018-11-04T00:31:28.626Z,95995.00
2018-11-04T00:32:06.402Z,95996.00
2018-11-04T00:32:44.382Z,95997.00
2018-11-04T00:33:22.275Z,96000.00
2018-11-04T00:33:59.888Z,95997.00
2018-11-04T00:34:37.544Z,96001.00
2018-11-04T00:35:15.089Z,95994.00
2018-11-04T00:35:52.591Z,95996.00
2018-11-04T00:36:30.468Z,95997.00
2018-11-04T00:37:08.254Z,95991.00
2018-11-04T00:37:45.748Z,95991.00
2018-11-04T00:38:23.400Z,95992.00
2018-11-04T00:39:01.028Z,95991.00
2018-11-04T00:39:38.641Z,95989.00
2018-11-04T00:40:16.355Z,95990.00
2018-11-04T00:40:54.105Z,95993.00
2018-11-04T00:41:31.772Z,95991.00
2018-11-04T00:42:09.436Z,95989.00
2018-11-04T00:42:47.382Z,95991.00
2018-11-04T00:43:25.214Z,95988.00
2018-11-04T00:44:03.066Z,95989.00
2018-11-04T00:44:40.566Z,95990.00
2018-11-04T00:45:18.502Z,95991.00
2018-11-04T00:45:56.106Z,95993.00
2018-11-04T00:46:33.841Z,95987.00
2018-11-04T00:47:11.712Z,95987.00
2018-11-04T00:47:49.509Z,95993.00
2018-11-04T00:48:27.274Z,95988.00
2018-11-04T00:49:05.011Z,95990.00
2018-11-04T00:49:42.458Z,95988.00
2018-11-04T00:50:20.288Z,95980.00
2018-11-04T00:50:58.141Z,95988.00
2018-11-04T00:51:35.862Z,95989.00
2018-11-04T00:52:13.421Z,95993.00
2018-11-04T00:52:51.187Z,95989.00
2018-11-04T00:53:28.736Z,95990.00
2018-11-04T00:54:06.275Z,95990.00
2018-11-04T00:54:44.061Z,95989.00
2018-11-04T00:55:21.674Z,95986.00
2018-11-04T00:55:59.494Z,95987.00
2018-11-04T00:56:37.174Z,95984.00
2018-11-04T00:57:14.878Z,95989.00
2018-11-04T00:57:52.509Z,95983.00
2018-11-04T00:58:30.051Z,95985.00
2018-11-04T00:59:07.785Z,95987.00
2018-11-04T00:59:45.472Z,95980.00
2018-11-04T01:00:23.244Z,95984.00
2018-11-04T01:01:00.777Z,95978.00
2018-11-04T01:01:38.413Z,95977.00
2018-11-04T01:02:16.084Z,95980.00
2018-11-04T01:02:53.661Z,95982.00
2018-11-04T01:03:31.282Z,95980.00
2018-11-04T01:04:09.089Z,95976.00
2018-11-04T01:04:46.941Z,95975.00
2018-11-04T01:05:24.589Z,95976.00
2018-11-04T01:06:02.210Z,95970.00
2018-11-04T01:06:39.986Z,95972.00
2018-11-04T01:07:17.692Z,95971.00
2018-11-04T01:07:55.588Z,95973.00
2018-11-04T01:08:33.409Z,95967.00
2018-11-04T01:09:11.241Z,95976.00
2018-11-04T01:09:48.842Z,95967.00
2018-11-04T01:10:26.450Z,95963.00
2018-11-04T01:11:03.964Z,95969.00
2018-11-04T01:11:41.483Z,95964.00
2018-11-04T01:12:19.307Z,95963.00
2018-11-04T01:12:57.438Z,95964.00
2018-11-04T01:13:35.103Z,95968.00
2018-11-04T01:14:12.860Z,95967.00
2018-11-04T01:14:50.685Z,95963.00
2018-11-04T01:15:28.307Z,95964.00
2018-11-04T01:16:06.019Z,95962.00
2018-11-04T01:16:43.790Z,95962.00
2018-11-04T01:17:21.685Z,95967.00
2018-11-04T01:17:59.509Z,95965.00
2018-11-04T01:18:37.461Z,95968.00
2018-11-04T01:19:15.222Z,95963.00
2018-11-04T01:19:52.920Z,95961.00
2018-11-04T01:20:30.411Z,95964.00
2018-11-04T01:21:07.973Z,95966.00
2018-11-04T01:21:45.735Z,95957.00
2018-11-04T01:22:23.541Z,95957.00
2018-11-04T01:23:01.339Z,95961.00
2018-11-04T01:23:39.060Z,95956.00
2018-11-04T01:24:17.061Z,95957.00
2018-11-04T01:24:54.782Z,95956.00
2018-11-04T01:25:32.361Z,95956.00
2018-11-04T01:26:10.195Z,95960.00
2018-11-04T01:26:47.728Z,95955.00
2018-11-04T01:27:25.490Z,95957.00
2018-11-04T01:28:03.402Z,95956.00
2018-11-04T01:28:41.289Z,95963.00
2018-11-04T01:29:19.349Z,95954.00
2018-11-04T01:29:57.271Z,95959.00
2018-11-04T01:30:34.970Z,95960.00
2018-11-04T01:31:12.740Z,95956.00
2018-11-04T01:31:50.457Z,95957.00
2018-11-04T01:32:28.287Z,95955.00
2018-11-04T01:33:05.792Z,95954.00
2018-11-04T01:33:43.306Z,95946.00
2018-11-04T01:34:21.161Z,95943.00
2018-11-04T01:34:59.002Z,95945.00
2018-11-04T01:35:36.651Z,95939.00
2018-11-04T01:36:14.328Z,95943.00
2018-11-04T01:36:51.849Z,95944.00
2018-11-04T01:37:29.681Z,95948.00
2018-11-04T01:38:07.213Z,95956.00
2018-11-04T01:38:44.902Z,95951.00
2018-11-04T01:39:22.963Z,95952.00
2018-11-04T01:40:00.450Z,95952.00
2018-11-04T01:40:38.136Z,95949.00
2018-11-04T01:41:15.649Z,95950.00
2018-11-04T01:41:53.275Z,95939.00
2018-11-04T01:42:30.803Z,95937.00
2018-11-04T01:43:08.600Z,95936.00
2018-11-04T01:43:46.380Z,95934.00
2018-11-04T01:44:23.924Z,95935.00
2018-11-04T01:45:01.738Z,95934.00
2018-11-04T01:45:39.735Z,95931.00
2018-11-04T01:46:17.445Z,95934.00
2018-11-04T01:46:55.363Z,95937.00
2018-11-04T01:47:33.371Z,95930.00
2018-11-04T01:48:10.921Z,95930.00
2018-11-04T01:48:48.702Z,95930.00
2018-11-04T01:49:26.321Z,95934.00
2018-11-04T01:50:04.300Z,95935.00
2018-11-04T01:50:41.922Z,95933.00
2018-11-04T01:51:19.661Z,95929.00
2018-11-04T01:51:57.340Z,95930.00
2018-11-04T01:52:34.954Z,95928.00
2018-11-04T01:53:12.797Z,95925.00
2018-11-04T01:53:50.756Z,95920.00
2018-11-04T01:54:28.445Z,95923.00
2018-11-04T01:55:05.980Z,95921.00
2018-11-04T01:55:43.780Z,95919.00
2018-11-04T01:56:21.332Z,95922.00
2018-11-04T01:56:59.409Z,95921.00
2018-11-04T01:57:37.139Z,95922.00
2018-11-04T01:58:14.793Z,95920.00
2018-11-04T01:58:52.593Z,95920.00
2018-11-04T01:59:30.314Z,95911.00
2018-11-04T02:00:07.915Z,95910.00
2018-11-04T02:00:45.665Z,95913.00
2018-11-04T02:01:23.227Z,95907.00
2018-11-04T02:02:01.051Z,95902.00
2018-11-04T02:02:38.762Z,95910.00
2018-11-04T02:03:16.473Z,95905.00
2018-11-04T02:03:54.270Z,95898.00
2018-11-04T02:04:31.712Z,95901.00
2018-11-04T02:05:09.569Z,95898.00
2018-11-04T02:05:47.402Z,95896.00
2018-11-04T02:06:24.972Z,95895.00
2018-11-04T02:07:02.826Z,95891.00
2018-11-04T02:07:40.660Z,95889.00
2018-11-04T02:08:18.529Z,95886.00
2018-11-04T02:08:56.135Z,95886.00
2018-11-04T02:09:35.066Z,95885.00
2018-11-04T02:10:12.646Z,95884.00
2018-11-04T02:10:50.336Z,95883.00
2018-11-04T02:11:28.311Z,95884.00
2018-11-04T02:12:06.156Z,95879.00
2018-11-04T02:12:43.964Z,95882.00
2018-11-04T02:13:21.746Z,95889.00
2018-11-04T02:13:59.638Z,95881.00
2018-11-04T02:14:37.318Z,95885.00
2018-11-04T02:15:15.135Z,95890.00
2018-11-04T02:15:52.922Z,95887.00
2018-11-04T02:16:30.810Z,95884.00
2018-11-04T02:17:08.520Z,95885.00
2018-11-04T02:17:46.408Z,95887.00
2018-11-04T02:18:24.070Z,95886.00
2018-11-04T02:19:02.004Z,95886.00
2018-11-04T02:19:39.843Z,95891.00
2018-11-04T02:20:17.705Z,95878.00
2018-11-04T02:20:55.496Z,95881.00
2018-11-04T02:21:33.114Z,95878.00
2018-11-04T02:22:10.976Z,95875.00
2018-11-04T02:22:48.464Z,95873.00
2018-11-04T02:23:26.159Z,95876.00
2018-11-04T02:24:03.955Z,95876.00
2018-11-04T02:24:41.694Z,95880.00
2018-11-04T02:25:19.288Z,95879.00
2018-11-04T02:25:57.002Z,95880.00
2018-11-04T02:26:34.800Z,95883.00
2018-11-04T02:27:12.367Z,95879.00
2018-11-04T02:27:49.987Z,95877.00
2018-11-04T02:28:27.578Z,95872.00
2018-11-04T02:29:05.300Z,95877.00
2018-11-04T02:29:43.101Z,95874.00
2018-11-04T02:30:20.781Z,95876.00
2018-11-04T02:30:58.429Z,95873.00
2018-11-04T02:31:36.046Z,95876.00
2018-11-04T02:32:13.914Z,95879.00
2018-11-04T02:32:51.537Z,95879.00
2018-11-04T02:33:29.159Z,95880.00
2018-11-04T02:34:06.679Z,95887.00
2018-11-04T02:34:44.302Z,95887.00
2018-11-04T02:35:22.117Z,95888.00
2018-11-04T02:35:59.726Z,95888.00
2018-11-04T02:36:37.606Z,95889.00
2018-11-04T02:37:15.140Z,95892.00
2018-11-04T02:37:52.699Z,95887.00
2018-11-04T02:38:30.294Z,95889.00
2018-11-04T02:39:07.910Z,95889.00
2018-11-04T02:39:45.713Z,95884.00
2018-11-04T02:40:23.510Z,95886.00
2018-11-04T02:41:01.326Z,95885.00
2018-11-04T02:41:39.286Z,95877.00
2018-11-04T02:42:17.170Z,95879.00
2018-11-04T02:42:54.965Z,95878.00
2018-11-04T02:43:32.731Z,95878.00
2018-11-04T02:44:10.499Z,95876.00
2018-11-04T02:44:48.145Z,95880.00
2018-11-04T02:45:25.942Z,95873.00
2018-11-04T02:46:03.706Z,95878.00
2018-11-04T02:46:41.392Z,95880.00
2018-11-04T02:47:19.227Z,95878.00
2018-11-04T02:47:56.841Z,95881.00
2018-11-04T02:48:34.503Z,95880.00
2018-11-04T02:49:12.614Z,95875.00
2018-11-04T02:49:50.262Z,95877.00
2018-11-04T02:50:28.032Z,95878.00
2018-11-04T02:51:05.584Z,95878.00
2018-11-04T02:51:43.176Z,95876.00
2018-11-04T02:52:20.714Z,95870.00
2018-11-04T02:52:58.550Z,95868.00
2018-11-04T02:53:36.608Z,95870.00
2018-11-04T02:54:14.138Z,95869.00
2018-11-04T02:54:51.821Z,95868.00
2018-11-04T02:55:29.378Z,95863.00
2018-11-04T02:56:07.004Z,95866.00
2018-11-04T02:56:44.892Z,95866.00
2018-11-04T02:57:22.521Z,95868.00
2018-11-04T02:58:00.220Z,95866.00
2018-11-04T02:58:38.112Z,95871.00
2018-11-04T02:59:16.243Z,95869.00
2018-11-04T02:59:53.820Z,95872.00
2018-11-04T03:00:31.672Z,95872.00
2018-11-04T03:01:09.733Z,95873.00
2018-11-04T03:01:47.504Z,95877.00
2018-11-04T03:02:25.272Z,95867.00
2018-11-04T03:03:03.226Z,95871.00
2018-11-04T03:03:40.873Z,95870.00
2018-11-04T03:04:18.399Z,95874.00
2018-11-04T03:04:55.985Z,95872.00
2018-11-04T03:05:33.663Z,95875.00
2018-11-04T03:06:11.234Z,95876.00
2018-11-04T03:06:48.805Z,95879.00
2018-11-04T03:07:26.557Z,95878.00
2018-11-04T03:08:04.332Z,95878.00
2018-11-04T03:08:42.080Z,95873.00
2018-11-04T03:09:19.798Z,95877.00
2018-11-04T03:09:57.791Z,95871.00
2018-11-04T03:10:35.506Z,95872.00
2018-11-04T03:11:13.265Z,95872.00
2018-11-04T03:11:51.252Z,95871.00
2018-11-04T03:12:28.957Z,95873.00
2018-11-04T03:13:06.863Z,95871.00
2018-11-04T03:13:44.554Z,95874.00
2018-11-04T03:14:22.446Z,95874.00
2018-11-04T03:15:00.182Z,95874.00
2018-11-04T03:15:37.719Z,95874.00
2018-11-04T03:16:15.582Z,95874.00
2018-11-04T03:16:53.079Z,95869.00
2018-11-04T03:17:30.752Z,95870.00
2018-11-04T03:18:08.412Z,95872.00
2018-11-04T03:18:45.991Z,95870.00
2018-11-04T03:19:23.674Z,95871.00
2018-11-04T03:20:01.568Z,95872.00
2018-11-04T03:20:39.130Z,95870.00
2018-11-04T03:21:16.831Z,95869.00
2018-11-04T03:21:54.357Z,95872.00
2018-11-04T03:22:32.072Z,95871.00
2018-11-04T03:23:09.755Z,95870.00
2018-11-04T03:23:47.655Z,95865.00
2018-11-04T03:24:25.546Z,95866.00
2018-11-04T03:25:03.075Z,95867.00
2018-11-04T03:25:40.955Z,95869.00
2018-11-04T03:26:18.571Z,95866.00
2018-11-04T03:26:56.193Z,95861.00
2018-11-04T03:27:33.894Z,95859.00
2018-11-04T03:28:11.522Z,95855.00
2018-11-04T03:28:49.254Z,95857.00
2018-11-04T03:29:26.897Z,95853.00
2018-11-04T03:30:04.468Z,95850.00
2018-11-04T03:30:42.030Z,95849.00
2018-11-04T03:31:19.704Z,95849.00
2018-11-04T03:31:57.416Z,95849.00
2018-11-04T03:32:35.218Z,95847.00
2018-11-04T03:33:12.847Z,95851.00
2018-11-04T03:33:50.395Z,95850.00
2018-11-04T03:34:28.084Z,95856.00
2018-11-04T03:35:05.886Z,95854.00
2018-11-04T03:35:43.764Z,95860.00
2018-11-04T03:36:21.842Z,95854.00
2018-11-04T03:36:59.932Z,95852.00
2018-11-04T03:37:37.916Z,95849.00
2018-11-04T03:38:15.416Z,95852.00
2018-11-04T03:38:53.126Z,95849.00
2018-11-04T03:39:31.015Z,95852.00
2018-11-04T03:40:08.753Z,95853.00
2018-11-04T03:40:46.259Z,95855.00
2018-11-04T03:41:23.906Z,95850.00
2018-11-04T03:42:01.522Z,95846.00
2018-11-04T03:42:39.145Z,95848.00
2018-11-04T03:43:16.652Z,95841.00
2018-11-04T03:43:54.448Z,95843.00
2018-11-04T03:44:32.246Z,95839.00
2018-11-04T03:45:09.970Z,95840.00
2018-11-04T03:45:47.590Z,95838.00
2018-11-04T03:46:25.244Z,95845.00
2018-11-04T03:47:02.909Z,95840.00
2018-11-04T03:47:40.458Z,95842.00
2018-11-04T03:48:18.230Z,95843.00
2018-11-04T03:48:55.860Z,95841.00
2018-11-04T03:49:33.490Z,95840.00
2018-11-04T03:50:11.105Z,95842.00
2018-11-04T03:50:48.654Z,95836.00
2018-11-04T03:51:26.246Z,95835.00
2018-11-04T03:52:03.996Z,95838.00
2018-11-04T03:52:41.843Z,95838.00
2018-11-04T03:53:19.641Z,95839.00
2018-11-04T03:53:57.228Z,95840.00
2018-11-04T03:54:35.003Z,95834.00
2018-11-04T03:55:12.820Z,95835.00
2018-11-04T03:55:50.752Z,95832.00
2018-11-04T03:56:28.451Z,95839.00
2018-11-04T03:57:06.211Z,95838.00
2018-11-04T03:57:43.805Z,95841.00
2018-11-04T03:58:21.402Z,95844.00
2018-11-04T03:58:59.126Z,95838.00
2018-11-04T03:59:36.968Z,95840.00
2018-11-04T04:00:14.725Z,95837.00
2018-11-04T04:00:52.269Z,95836.00
2018-11-04T04:01:30.047Z,95833.00
2018-11-04T04:02:07.884Z,95832.00
2018-11-04T04:02:45.774Z,95828.00
2018-11-04T04:03:23.448Z,95828.00
2018-11-04T04:04:01.159Z,95830.00
2018-11-04T04:04:38.883Z,95830.00
2018-11-04T04:05:16.578Z,95825.00
2018-11-04T04:05:54.195Z,95828.00
2018-11-04T04:06:31.728Z,95828.00
2018-11-04T04:07:09.467Z,95829.00
2018-11-04T04:07:47.432Z,95828.00
2018-11-04T04:08:25.045Z,95825.00
2018-11-04T04:09:02.658Z,95827.00
2018-11-04T04:09:40.387Z,95826.00
2018-11-04T04:10:18.085Z,95832.00
2018-11-04T04:10:55.877Z,95832.00
2018-11-04T04:11:33.859Z,95831.00
2018-11-04T04:12:11.491Z,95831.00
2018-11-04T04:12:49.107Z,95835.00
2018-11-04T04:13:26.907Z,95831.00
2018-11-04T04:14:04.694Z,95834.00
2018-11-04T04:14:42.585Z,95837.00
2018-11-04T04:15:20.407Z,95827.00
2018-11-04T04:15:58.769Z,95818.00
2018-11-04T04:16:36.548Z,95819.00
2018-11-04T04:17:14.258Z,95818.00
2018-11-04T04:17:51.861Z,95809.00
2018-11-04T04:18:29.843Z,95815.00
2018-11-04T04:19:07.455Z,95819.00
2018-11-04T04:19:45.068Z,95820.00
2018-11-04T04:20:22.726Z,95818.00
2018-11-04T04:21:00.597Z,95820.00
2018-11-04T04:21:38.331Z,95826.00
2018-11-04T04:22:15.910Z,95827.00
2018-11-04T04:22:53.526Z,95824.00
2018-11-04T04:23:31.357Z,95824.00
2018-11-04T04:24:09.131Z,95822.00
2018-11-04T04:24:46.856Z,95818.00
2018-11-04T04:25:24.551Z,95819.00
2018-11-04T04:26:02.184Z,95807.00
2018-11-04T04:26:39.995Z,95809.00
2018-11-04T04:27:18.082Z,95807.00
2018-11-04T04:27:55.931Z,95803.00
2018-11-04T04:28:33.729Z,95806.00
2018-11-04T04:29:11.709Z,95807.00
2018-11-04T04:29:49.354Z,95804.00
2018-11-04T04:30:27.124Z,95805.00
2018-11-04T04:31:04.837Z,95805.00
2018-11-04T04:31:42.577Z,95799.00
2018-11-04T04:32:20.163Z,95800.00
2018-11-04T04:32:57.723Z,95801.00
2018-11-04T04:33:35.420Z,95796.00
2018-11-04T04:34:13.311Z,95796.00
2018-11-04T04:34:50.851Z,95796.00
2018-11-04T04:35:28.547Z,95791.00
2018-11-04T04:36:06.251Z,95794.00
2018-11-04T04:36:44.078Z,95798.00
2018-11-04T04:37:21.674Z,95798.00
2018-11-04T04:37:59.547Z,95797.00
2018-11-04T04:38:37.127Z,95799.00
2018-11-04T04:39:14.642Z,95803.00
2018-11-04T04:39:52.596Z,95800.00
2018-11-04T04:40:30.398Z,95799.00
2018-11-04T04:41:08.375Z,95799.00
2018-11-04T04:41:46.178Z,95795.00
2018-11-04T04:42:24.160Z,95798.00
2018-11-04T04:43:01.603Z,95795.00
2018-11-04T04:43:39.364Z,95797.00
2018-11-04T04:44:17.188Z,95793.00
2018-11-04T04:44:54.778Z,95795.00
2018-11-04T04:45:32.483Z,95790.00
2018-11-04T04:46:10.239Z,95789.00
2018-11-04T04:46:48.446Z,95788.00
2018-11-04T04:47:26.016Z,95788.00
2018-11-04T04:48:03.694Z,95785.00
2018-11-04T04:48:41.586Z,95785.00
2018-11-04T04:49:19.218Z,95785.00
2018-11-04T04:49:57.005Z,95783.00
2018-11-04T04:50:34.715Z,95783.00
2018-11-04T04:51:12.534Z,95779.00
2018-11-04T04:51:50.417Z,95779.00
2018-11-04T04:52:28.038Z,95781.00
2018-11-04T04:53:06.033Z,95781.00
2018-11-04T04:53:43.626Z,95782.00
2018-11-04T04:54:21.431Z,95778.00
2018-11-04T04:54:58.864Z,95775.00
2018-11-04T04:55:36.663Z,95774.00
2018-11-04T04:56:14.205Z,95770.00
2018-11-04T04:56:51.891Z,95768.00
2018-11-04T04:57:29.761Z,95767.00
2018-11-04T04:58:07.429Z,95770.00
2018-11-04T04:58:45.044Z,95768.00
2018-11-04T04:59:22.734Z,95771.00
2018-11-04T05:00:00.263Z,95777.00
2018-11-04T05:00:38.068Z,95773.00
2018-11-04T05:01:15.591Z,95769.00
2018-11-04T05:01:53.296Z,95773.00
2018-11-04T05:02:31.112Z,95766.00
2018-11-04T05:03:08.804Z,95767.00
2018-11-04T05:03:46.906Z,95762.00
2018-11-04T05:04:24.770Z,95765.00
2018-11-04T05:05:02.595Z,95760.00
2018-11-04T05:05:40.190Z,95761.00
2018-11-04T05:06:17.993Z,95766.00
2018-11-04T05:06:55.745Z,95762.00
2018-11-04T05:07:33.951Z,95762.00
2018-11-04T05:08:11.590Z,95760.00
2018-11-04T05:08:49.276Z,95759.00
2018-11-04T05:09:27.104Z,95757.00
2018-11-04T05:10:04.985Z,95756.00
2018-11-04T05:10:42.813Z,95756.00
2018-11-04T05:11:20.612Z,95753.00
2018-11-04T05:11:58.550Z,95752.00
2018-11-04T05:12:36.215Z,95758.00
2018-11-04T05:13:13.720Z,95760.00
2018-11-04T05:13:51.411Z,95765.00
2018-11-04T05:14:29.032Z,95761.00
2018-11-04T05:15:06.678Z,95760.00
2018-11-04T05:15:44.451Z,95765.00
2018-11-04T05:16:22.334Z,95767.00
2018-11-04T05:17:00.050Z,95770.00
2018-11-04T05:17:37.576Z,95771.00
2018-11-04T05:18:15.106Z,95774.00
2018-11-04T05:18:52.824Z,95778.00
2018-11-04T05:19:30.750Z,95774.00
2018-11-04T05:20:08.778Z,95776.00
2018-11-04T05:20:46.397Z,95779.00
2018-11-04T05:21:24.043Z,95777.00
2018-11-04T05:22:01.640Z,95780.00
2018-11-04T05:22:39.170Z,95779.00
2018-11-04T05:23:16.701Z,95782.00
2018-11-04T05:23:54.410Z,95786.00
2018-11-04T05:24:32.324Z,95790.00
2018-11-04T05:25:10.007Z,95789.00
2018-11-04T05:25:47.624Z,95793.00
2018-11-04T05:26:25.414Z,95791.00
2018-11-04T05:27:03.261Z,95788.00
2018-11-04T05:27:40.960Z,95787.00
2018-11-04T05:28:18.664Z,95793.00
2018-11-04T05:28:56.531Z,95793.00
2018-11-04T05:29:34.079Z,95795.00
2018-11-04T05:30:11.993Z,95792.00
2018-11-04T05:30:49.875Z,95792.00
2018-11-04T05:31:27.665Z,95788.00
2018-11-04T05:32:05.435Z,95786.00
2018-11-04T05:32:43.065Z,95785.00
2018-11-04T05:33:20.770Z,95787.00
2018-11-04T05:33:58.706Z,95784.00
2018-11-04T05:34:36.680Z,95790.00
2018-11-04T05:35:14.347Z,95790.00
2018-11-04T05:35:51.975Z,95791.00
2018-11-04T05:36:29.530Z,95792.00
2018-11-04T05:37:07.226Z,95794.00
2018-11-04T05:37:44.936Z,95798.00
2018-11-04T05:38:22.699Z,95795.00
2018-11-04T05:39:00.603Z,95796.00
2018-11-04T05:39:38.266Z,95798.00
2018-11-04T05:40:16.143Z,95799.00
2018-11-04T05:40:53.865Z,95804.00
2018-11-04T05:41:31.443Z,95807.00
2018-11-04T05:42:09.102Z,95798.00
2018-11-04T05:42:47.225Z,95799.00
2018-11-04T05:43:24.982Z,95805.00
2018-11-04T05:44:02.682Z,95800.00
2018-11-04T05:44:40.456Z,95801.00
2018-11-04T05:45:17.909Z,95799.00
2018-11-04T05:45:55.567Z,95796.00
2018-11-04T05:46:33.389Z,95795.00
2018-11-04T05:47:11.159Z,95793.00
2018-11-04T05:47:48.664Z,95799.00
2018-11-04T05:48:26.338Z,95805.00
2018-11-04T05:49:04.365Z,95804.00
2018-11-04T05:49:42.127Z,95803.00
2018-11-04T05:50:19.571Z,95805.00
2018-11-04T05:50:57.218Z,95803.00
2018-11-04T05:51:34.990Z,95799.00
2018-11-04T05:52:12.620Z,95800.00
2018-11-04T05:52:50.342Z,95795.00
2018-11-04T05:53:28.229Z,95800.00
2018-11-04T05:54:06.015Z,95797.00
2018-11-04T05:54:43.562Z,95800.00
2018-11-04T05:55:21.446Z,95801.00
2018-11-04T05:55:59.077Z,95803.00
2018-11-04T05:56:36.689Z,95801.00
2018-11-04T05:57:14.349Z,95809.00
2018-11-04T05:57:51.925Z,95810.00
2018-11-04T05:58:29.802Z,95808.00
2018-11-04T05:59:07.422Z,95805.00
2018-11-04T05:59:44.955Z,95805.00
2018-11-04T06:00:22.845Z,95805.00
2018-11-04T06:01:00.557Z,95806.00
2018-11-04T06:01:38.527Z,95800.00
2018-11-04T06:02:16.230Z,95802.00
2018-11-04T06:02:54.122Z,95805.00
2018-11-04T06:03:31.802Z,95801.00
2018-11-04T06:04:09.565Z,95793.00
2018-11-04T06:04:47.437Z,95795.00
2018-11-04T06:05:25.059Z,95790.00
2018-11-04T06:06:03.059Z,95791.00
2018-11-04T06:06:40.816Z,95785.00
2018-11-04T06:07:18.274Z,95789.00
2018-11-04T06:07:55.778Z,95780.00
2018-11-04T06:08:33.204Z,95788.00
2018-11-04T06:09:10.760Z,95781.00
2018-11-04T06:09:48.324Z,95781.00
2018-11-04T06:10:26.103Z,95785.00
2018-11-04T06:11:03.730Z,95785.00
2018-11-04T06:11:41.363Z,95789.00
2018-11-04T06:12:18.842Z,95789.00
2018-11-04T06:12:56.535Z,95783.00
2018-11-04T06:13:34.026Z,95783.00
2018-11-04T06:14:11.589Z,95782.00
2018-11-04T06:14:49.271Z,95783.00
2018-11-04T06:15:26.779Z,95786.00
2018-11-04T06:16:04.401Z,95782.00
2018-11-04T06:16:42.035Z,95786.00
2018-11-04T06:17:19.499Z,95778.00
2018-11-04T06:17:57.087Z,95782.00
2018-11-04T06:18:34.838Z,95778.00
2018-11-04T06:19:12.394Z,95782.00
2018-11-04T06:19:49.982Z,95774.00
2018-11-04T06:20:27.483Z,95777.00
2018-11-04T06:21:05.289Z,95772.00
2018-11-04T06:21:43.144Z,95770.00
2018-11-04T06:22:20.802Z,95768.00
2018-11-04T06:22:58.445Z,95774.00
2018-11-04T06:23:36.198Z,95766.00
2018-11-04T06:24:13.774Z,95771.00
2018-11-04T06:24:51.405Z,95772.00
2018-11-04T06:25:28.991Z,95776.00
2018-11-04T06:26:06.566Z,95774.00
2018-11-04T06:26:44.178Z,95777.00
2018-11-04T06:27:21.741Z,95776.00
2018-11-04T06:27:59.322Z,95772.00
2018-11-04T06:28:36.814Z,95771.00
2018-11-04T06:29:14.375Z,95772.00
2018-11-04T06:29:51.964Z,95771.00
2018-11-04T06:30:29.413Z,95772.00
2018-11-04T06:31:07.067Z,95776.00
2018-11-04T06:31:44.663Z,95774.00
2018-11-04T06:32:22.329Z,95776.00
2018-11-04T06:32:59.932Z,95774.00
2018-11-04T06:33:37.470Z,95776.00
2018-11-04T06:34:15.286Z,95776.00
2018-11-04T06:34:52.894Z,95779.00
2018-11-04T06:35:30.470Z,95781.00
2018-11-04T06:36:08.166Z,95777.00
2018-11-04T06:36:45.711Z,95784.00
2018-11-04T06:37:23.533Z,95786.00
2018-11-04T06:38:01.317Z,95784.00
2018-11-04T06:38:38.845Z,95787.00
2018-11-04T06:39:16.514Z,95789.00
2018-11-04T06:39:54.351Z,95785.00
2018-11-04T06:40:32.092Z,95781.00
2018-11-04T06:41:09.870Z,95786.00
2018-11-04T06:41:47.602Z,95781.00
2018-11-04T06:42:25.170Z,95785.00
2018-11-04T06:43:02.714Z,95785.00
2018-11-04T06:43:40.210Z,95789.00
2018-11-04T06:44:17.887Z,95786.00
2018-11-04T06:44:55.629Z,95787.00
2018-11-04T06:45:33.086Z,95784.00
2018-11-04T06:46:10.570Z,95784.00
2018-11-04T06:46:48.091Z,95782.00
2018-11-04T06:47:25.610Z,95783.00
2018-11-04T06:48:03.203Z,95781.00
2018-11-04T06:48:41.017Z,95781.00
2018-11-04T06:49:18.595Z,95782.00
2018-11-04T06:49:56.174Z,95778.00
2018-11-04T06:50:33.709Z,95782.00
2018-11-04T06:51:11.359Z,95779.00
2018-11-04T06:51:49.035Z,95785.00
2018-11-04T06:52:26.482Z,95785.00
2018-11-04T06:53:03.991Z,95786.00
2018-11-04T06:53:41.562Z,95788.00
2018-11-04T06:54:19.347Z,95787.00
2018-11-04T06:54:57.035Z,95786.00
2018-11-04T06:55:34.888Z,95783.00
2018-11-04T06:56:12.334Z,95779.00
2018-11-04T06:56:49.934Z,95780.00
2018-11-04T06:57:27.481Z,95778.00
2018-11-04T06:58:04.987Z,95783.00
2018-11-04T06:58:42.691Z,95784.00
2018-11-04T06:59:20.304Z,95786.00
2018-11-04T06:59:58.089Z,95789.00
2018-11-04T07:00:35.841Z,95789.00
2018-11-04T07:01:13.537Z,95784.00
2018-11-04T07:01:50.955Z,95789.00
2018-11-04T07:02:28.666Z,95790.00
2018-11-04T07:03:06.382Z,95784.00
2018-11-04T07:03:44.063Z,95782.00
2018-11-04T07:04:21.621Z,95777.00
2018-11-04T07:04:59.216Z,95776.00
2018-11-04T07:05:36.935Z,95779.00
2018-11-04T07:06:14.672Z,95781.00
2018-11-04T07:06:52.264Z,95778.00
2018-11-04T07:07:29.829Z,95777.00
2018-11-04T07:08:07.539Z,95778.00
2018-11-04T07:08:45.061Z,95775.00
2018-11-04T07:09:22.802Z,95778.00
2018-11-04T07:10:00.263Z,95778.00
2018-11-04T07:10:37.845Z,95777.00
2018-11-04T07:11:15.439Z,95779.00
2018-11-04T07:11:53.070Z,95776.00
2018-11-04T07:12:30.670Z,95776.00
2018-11-04T07:13:08.298Z,95779.00
2018-11-04T07:13:45.970Z,95777.00
2018-11-04T07:14:23.425Z,95772.00
2018-11-04T07:15:01.170Z,95776.00
2018-11-04T07:15:38.630Z,95773.00
2018-11-04T07:16:16.372Z,95771.00
2018-11-04T07:16:53.925Z,95769.00
2018-11-04T07:17:31.722Z,95770.00
2018-11-04T07:18:09.279Z,95769.00
2018-11-04T07:18:47.031Z,95768.00
2018-11-04T07:19:24.646Z,95770.00
2018-11-04T07:20:02.318Z,95770.00
2018-11-04T07:20:39.984Z,95773.00
2018-11-04T07:21:17.821Z,95774.00
2018-11-04T07:21:55.593Z,95773.00
2018-11-04T07:22:33.394Z,95776.00